sensor_id;sensor_type;location;lat;lon;timestamp;P1;durP1;ratioP1;P2;durP2;ratioP2
20792;SDS011;10556;-33.662;151.094;2023-06-22T00:04:10;0.60;;;0.40;;
20792;SDS011;10556;-33.662;151.094;2023-06-22T00:09:13;0.67;;;0.60;;
20792;SDS011;10556;-33.662;151.094;2023-06-22T00:14:14;1.50;;;0.50;;
20792;SDS011;10556;-33.662;151.094;2023-06-22T00:19:16;0.80;;;0.57;;
20792;SDS011;10556;-33.662;151.094;2023-06-22T00:24:19;0.90;;;0.63;;
20792;SDS011;10556;-33.662;151.094;2023-06-22T00:29:20;2.07;;;1.30;;
20792;SDS011;10556;-33.662;151.094;2023-06-22T00:34:21;4.40;;;1.10;;
20792;SDS011;10556;-33.662;151.094;2023-06-22T00:39:24;1.83;;;1.10;;
20792;SDS011;10556;-33.662;151.094;2023-06-22T00:44:25;1.10;;;0.57;;
20792;SDS011;10556;-33.662;151.094;2023-06-22T00:49:27;2.20;;;0.50;;
20792;SDS011;10556;-33.662;151.094;2023-06-22T00:54:30;0.93;;;0.47;;
20792;SDS011;10556;-33.662;151.094;2023-06-22T00:59:31;0.87;;;0.50;;
20792;SDS011;10556;-33.662;151.094;2023-06-22T01:04:34;0.83;;;0.50;;
20792;SDS011;10556;-33.662;151.094;2023-06-22T01:09:39;1.27;;;0.60;;
20792;SDS011;10556;-33.662;151.094;2023-06-22T01:14:47;0.73;;;0.50;;
20792;SDS011;10556;-33.662;151.094;2023-06-22T01:19:52;1.00;;;0.40;;
20792;SDS011;10556;-33.662;151.094;2023-06-22T01:24:57;1.83;;;0.50;;
20792;SDS011;10556;-33.662;151.094;2023-06-22T01:30:02;2.00;;;0.50;;
20792;SDS011;10556;-33.662;151.094;2023-06-22T01:35:04;0.70;;;0.33;;
20792;SDS011;10556;-33.662;151.094;2023-06-22T01:40:06;1.60;;;0.33;;
20792;SDS011;10556;-33.662;151.094;2023-06-22T01:45:10;0.40;;;0.40;;
20792;SDS011;10556;-33.662;151.094;2023-06-22T01:50:12;0.30;;;0.27;;
20792;SDS011;10556;-33.662;151.094;2023-06-22T01:55:13;1.70;;;0.40;;
20792;SDS011;10556;-33.662;151.094;2023-06-22T02:00:17;0.53;;;0.30;;
20792;SDS011;10556;-33.662;151.094;2023-06-22T02:05:19;0.37;;;0.27;;
20792;SDS011;10556;-33.662;151.094;2023-06-22T02:10:20;0.70;;;0.30;;
20792;SDS011;10556;-33.662;151.094;2023-06-22T02:15:25;1.03;;;0.40;;
20792;SDS011;10556;-33.662;151.094;2023-06-22T02:20:26;1.03;;;0.40;;
20792;SDS011;10556;-33.662;151.094;2023-06-22T02:25:27;0.70;;;0.30;;
20792;SDS011;10556;-33.662;151.094;2023-06-22T02:30:30;1.13;;;0.30;;
20792;SDS011;10556;-33.662;151.094;2023-06-22T02:35:32;3.77;;;0.50;;
20792;SDS011;10556;-33.662;151.094;2023-06-22T02:40:33;0.80;;;0.50;;
20792;SDS011;10556;-33.662;151.094;2023-06-22T02:45:36;2.00;;;0.77;;
20792;SDS011;10556;-33.662;151.094;2023-06-22T02:50:37;1.13;;;0.63;;
20792;SDS011;10556;-33.662;151.094;2023-06-22T02:55:38;2.37;;;0.60;;
20792;SDS011;10556;-33.662;151.094;2023-06-22T03:00:41;1.03;;;0.40;;
20792;SDS011;10556;-33.662;151.094;2023-06-22T03:05:43;1.37;;;0.50;;
20792;SDS011;10556;-33.662;151.094;2023-06-22T03:10:44;1.63;;;0.50;;
20792;SDS011;10556;-33.662;151.094;2023-06-22T03:15:47;3.63;;;0.70;;
20792;SDS011;10556;-33.662;151.094;2023-06-22T03:20:48;2.23;;;0.60;;
20792;SDS011;10556;-33.662;151.094;2023-06-22T03:25:49;2.50;;;1.17;;
20792;SDS011;10556;-33.662;151.094;2023-06-22T03:30:53;1.73;;;0.80;;
20792;SDS011;10556;-33.662;151.094;2023-06-22T03:35:54;1.97;;;0.70;;
20792;SDS011;10556;-33.662;151.094;2023-06-22T03:40:55;0.97;;;0.60;;
20792;SDS011;10556;-33.662;151.094;2023-06-22T03:45:58;1.30;;;0.70;;
20792;SDS011;10556;-33.662;151.094;2023-06-22T03:50:59;0.90;;;0.60;;
20792;SDS011;10556;-33.662;151.094;2023-06-22T03:56:00;2.73;;;0.70;;
20792;SDS011;10556;-33.662;151.094;2023-06-22T04:01:04;1.80;;;1.07;;
20792;SDS011;10556;-33.662;151.094;2023-06-22T04:06:05;3.30;;;1.00;;
20792;SDS011;10556;-33.662;151.094;2023-06-22T04:11:06;1.23;;;0.53;;
20792;SDS011;10556;-33.662;151.094;2023-06-22T04:16:09;1.33;;;0.43;;
20792;SDS011;10556;-33.662;151.094;2023-06-22T04:21:11;0.80;;;0.50;;
20792;SDS011;10556;-33.662;151.094;2023-06-22T04:26:12;1.27;;;0.40;;
20792;SDS011;10556;-33.662;151.094;2023-06-22T04:31:15;0.90;;;0.60;;
20792;SDS011;10556;-33.662;151.094;2023-06-22T04:36:16;1.63;;;0.73;;
20792;SDS011;10556;-33.662;151.094;2023-06-22T04:41:17;2.30;;;0.83;;
20792;SDS011;10556;-33.662;151.094;2023-06-22T04:46:20;1.00;;;0.70;;
20792;SDS011;10556;-33.662;151.094;2023-06-22T04:51:22;2.00;;;0.80;;
20792;SDS011;10556;-33.662;151.094;2023-06-22T04:56:23;1.50;;;0.67;;
20792;SDS011;10556;-33.662;151.094;2023-06-22T05:01:26;1.03;;;0.60;;
20792;SDS011;10556;-33.662;151.094;2023-06-22T05:06:27;0.50;;;0.40;;
20792;SDS011;10556;-33.662;151.094;2023-06-22T05:11:29;1.37;;;0.60;;
20792;SDS011;10556;-33.662;151.094;2023-06-22T05:16:32;1.00;;;0.50;;
20792;SDS011;10556;-33.662;151.094;2023-06-22T05:21:33;2.57;;;1.00;;
20792;SDS011;10556;-33.662;151.094;2023-06-22T05:26:34;1.60;;;1.20;;
20792;SDS011;10556;-33.662;151.094;2023-06-22T05:31:40;4.20;;;2.47;;
20792;SDS011;10556;-33.662;151.094;2023-06-22T05:36:41;1.97;;;1.20;;
20792;SDS011;10556;-33.662;151.094;2023-06-22T05:41:42;3.10;;;1.50;;
20792;SDS011;10556;-33.662;151.094;2023-06-22T05:46:46;1.43;;;1.07;;
20792;SDS011;10556;-33.662;151.094;2023-06-22T05:51:47;1.90;;;1.30;;
20792;SDS011;10556;-33.662;151.094;2023-06-22T05:56:48;3.40;;;2.20;;
20792;SDS011;10556;-33.662;151.094;2023-06-22T06:01:51;5.00;;;2.90;;
20792;SDS011;10556;-33.662;151.094;2023-06-22T06:06:52;4.73;;;2.20;;
20792;SDS011;10556;-33.662;151.094;2023-06-22T06:11:54;5.40;;;2.80;;
20792;SDS011;10556;-33.662;151.094;2023-06-22T06:16:57;13.47;;;10.10;;
20792;SDS011;10556;-33.662;151.094;2023-06-22T06:21:58;3.20;;;2.87;;
20792;SDS011;10556;-33.662;151.094;2023-06-22T06:26:59;4.37;;;2.97;;
20792;SDS011;10556;-33.662;151.094;2023-06-22T06:32:02;2.87;;;2.23;;
20792;SDS011;10556;-33.662;151.094;2023-06-22T06:37:04;2.83;;;1.97;;
20792;SDS011;10556;-33.662;151.094;2023-06-22T06:42:05;2.37;;;2.17;;
20792;SDS011;10556;-33.662;151.094;2023-06-22T06:47:08;4.37;;;2.17;;
20792;SDS011;10556;-33.662;151.094;2023-06-22T06:52:09;3.87;;;1.33;;
20792;SDS011;10556;-33.662;151.094;2023-06-22T06:57:11;2.33;;;1.30;;
20792;SDS011;10556;-33.662;151.094;2023-06-22T07:02:14;3.77;;;1.40;;
20792;SDS011;10556;-33.662;151.094;2023-06-22T07:07:16;2.10;;;1.47;;
20792;SDS011;10556;-33.662;151.094;2023-06-22T07:12:17;1.83;;;1.43;;
20792;SDS011;10556;-33.662;151.094;2023-06-22T07:17:20;6.43;;;3.93;;
20792;SDS011;10556;-33.662;151.094;2023-06-22T07:22:22;5.20;;;4.30;;
20792;SDS011;10556;-33.662;151.094;2023-06-22T07:27:23;10.87;;;6.87;;
20792;SDS011;10556;-33.662;151.094;2023-06-22T07:32:26;9.67;;;6.57;;
20792;SDS011;10556;-33.662;151.094;2023-06-22T07:37:27;7.70;;;5.50;;
20792;SDS011;10556;-33.662;151.094;2023-06-22T07:42:28;9.73;;;4.23;;
20792;SDS011;10556;-33.662;151.094;2023-06-22T07:47:31;7.40;;;5.27;;
20792;SDS011;10556;-33.662;151.094;2023-06-22T07:52:33;4.77;;;3.93;;
20792;SDS011;10556;-33.662;151.094;2023-06-22T07:57:34;11.07;;;7.67;;
20792;SDS011;10556;-33.662;151.094;2023-06-22T08:02:37;9.77;;;6.40;;
20792;SDS011;10556;-33.662;151.094;2023-06-22T08:07:38;7.33;;;3.77;;
20792;SDS011;10556;-33.662;151.094;2023-06-22T08:12:39;5.23;;;3.50;;
20792;SDS011;10556;-33.662;151.094;2023-06-22T08:17:43;5.40;;;2.97;;
20792;SDS011;10556;-33.662;151.094;2023-06-22T08:22:45;5.63;;;3.97;;
20792;SDS011;10556;-33.662;151.094;2023-06-22T08:27:46;18.53;;;10.13;;
20792;SDS011;10556;-33.662;151.094;2023-06-22T08:32:49;27.37;;;15.50;;
20792;SDS011;10556;-33.662;151.094;2023-06-22T08:37:50;21.47;;;13.70;;
20792;SDS011;10556;-33.662;151.094;2023-06-22T08:42:51;13.37;;;9.23;;
20792;SDS011;10556;-33.662;151.094;2023-06-22T08:47:54;11.57;;;7.07;;
20792;SDS011;10556;-33.662;151.094;2023-06-22T08:52:56;14.07;;;9.20;;
20792;SDS011;10556;-33.662;151.094;2023-06-22T08:57:57;18.87;;;14.70;;
20792;SDS011;10556;-33.662;151.094;2023-06-22T09:03:00;10.13;;;8.43;;
20792;SDS011;10556;-33.662;151.094;2023-06-22T09:08:01;10.23;;;6.00;;
20792;SDS011;10556;-33.662;151.094;2023-06-22T09:13:02;5.10;;;4.07;;
20792;SDS011;10556;-33.662;151.094;2023-06-22T09:18:05;5.83;;;3.23;;
20792;SDS011;10556;-33.662;151.094;2023-06-22T09:23:07;4.50;;;3.70;;
20792;SDS011;10556;-33.662;151.094;2023-06-22T09:28:08;6.93;;;4.30;;
20792;SDS011;10556;-33.662;151.094;2023-06-22T09:33:11;6.10;;;4.17;;
20792;SDS011;10556;-33.662;151.094;2023-06-22T09:38:12;4.07;;;3.33;;
20792;SDS011;10556;-33.662;151.094;2023-06-22T09:43:14;4.37;;;2.97;;
20792;SDS011;10556;-33.662;151.094;2023-06-22T09:48:17;12.37;;;9.37;;
20792;SDS011;10556;-33.662;151.094;2023-06-22T09:53:18;9.77;;;8.03;;
20792;SDS011;10556;-33.662;151.094;2023-06-22T09:58:19;11.87;;;10.77;;
20792;SDS011;10556;-33.662;151.094;2023-06-22T10:03:22;6.27;;;4.53;;
20792;SDS011;10556;-33.662;151.094;2023-06-22T10:08:23;4.03;;;2.97;;
20792;SDS011;10556;-33.662;151.094;2023-06-22T10:13:25;3.23;;;2.50;;
20792;SDS011;10556;-33.662;151.094;2023-06-22T10:18:28;7.63;;;4.80;;
20792;SDS011;10556;-33.662;151.094;2023-06-22T10:23:29;8.70;;;6.10;;
20792;SDS011;10556;-33.662;151.094;2023-06-22T10:28:30;6.37;;;4.90;;
20792;SDS011;10556;-33.662;151.094;2023-06-22T10:33:33;6.43;;;3.80;;
20792;SDS011;10556;-33.662;151.094;2023-06-22T10:38:35;5.70;;;3.60;;
20792;SDS011;10556;-33.662;151.094;2023-06-22T10:43:36;4.13;;;3.17;;
20792;SDS011;10556;-33.662;151.094;2023-06-22T10:48:39;3.97;;;3.00;;
20792;SDS011;10556;-33.662;151.094;2023-06-22T10:53:40;4.57;;;2.97;;
20792;SDS011;10556;-33.662;151.094;2023-06-22T10:58:41;3.10;;;2.30;;
20792;SDS011;10556;-33.662;151.094;2023-06-22T11:03:44;5.37;;;2.50;;
20792;SDS011;10556;-33.662;151.094;2023-06-22T11:08:46;3.70;;;2.77;;
20792;SDS011;10556;-33.662;151.094;2023-06-22T11:13:47;6.73;;;4.83;;
20792;SDS011;10556;-33.662;151.094;2023-06-22T11:18:50;5.63;;;4.80;;
20792;SDS011;10556;-33.662;151.094;2023-06-22T11:23:51;5.00;;;4.00;;
20792;SDS011;10556;-33.662;151.094;2023-06-22T11:28:53;3.97;;;3.10;;
20792;SDS011;10556;-33.662;151.094;2023-06-22T11:33:56;4.53;;;3.23;;
20792;SDS011;10556;-33.662;151.094;2023-06-22T11:38:57;2.90;;;2.30;;
20792;SDS011;10556;-33.662;151.094;2023-06-22T11:43:58;7.57;;;4.10;;
20792;SDS011;10556;-33.662;151.094;2023-06-22T11:49:01;3.93;;;2.87;;
20792;SDS011;10556;-33.662;151.094;2023-06-22T11:54:02;5.03;;;3.00;;
20792;SDS011;10556;-33.662;151.094;2023-06-22T11:59:04;3.40;;;2.87;;
20792;SDS011;10556;-33.662;151.094;2023-06-22T12:04:07;5.90;;;2.70;;
20792;SDS011;10556;-33.662;151.094;2023-06-22T12:09:08;3.00;;;1.70;;
20792;SDS011;10556;-33.662;151.094;2023-06-22T12:14:09;3.83;;;1.70;;
20792;SDS011;10556;-33.662;151.094;2023-06-22T12:19:13;3.43;;;1.80;;
20792;SDS011;10556;-33.662;151.094;2023-06-22T12:24:14;4.57;;;2.50;;
20792;SDS011;10556;-33.662;151.094;2023-06-22T12:29:15;5.70;;;3.53;;
20792;SDS011;10556;-33.662;151.094;2023-06-22T12:34:18;2.63;;;2.00;;
20792;SDS011;10556;-33.662;151.094;2023-06-22T12:39:19;2.27;;;1.27;;
20792;SDS011;10556;-33.662;151.094;2023-06-22T12:44:20;2.07;;;1.27;;
20792;SDS011;10556;-33.662;151.094;2023-06-22T12:49:24;1.47;;;1.00;;
20792;SDS011;10556;-33.662;151.094;2023-06-22T12:54:25;5.93;;;1.43;;
20792;SDS011;10556;-33.662;151.094;2023-06-22T12:59:26;2.27;;;1.13;;
20792;SDS011;10556;-33.662;151.094;2023-06-22T13:04:29;2.00;;;1.10;;
20792;SDS011;10556;-33.662;151.094;2023-06-22T13:09:30;1.60;;;0.87;;
20792;SDS011;10556;-33.662;151.094;2023-06-22T13:14:32;2.00;;;1.20;;
20792;SDS011;10556;-33.662;151.094;2023-06-22T13:19:35;3.83;;;1.70;;
20792;SDS011;10556;-33.662;151.094;2023-06-22T13:24:36;2.40;;;1.40;;
20792;SDS011;10556;-33.662;151.094;2023-06-22T13:29:37;3.60;;;1.37;;
20792;SDS011;10556;-33.662;151.094;2023-06-22T13:34:40;3.63;;;1.07;;
20792;SDS011;10556;-33.662;151.094;2023-06-22T13:39:41;1.50;;;0.90;;
20792;SDS011;10556;-33.662;151.094;2023-06-22T13:44:43;3.50;;;1.23;;
20792;SDS011;10556;-33.662;151.094;2023-06-22T13:49:46;2.87;;;1.23;;
20792;SDS011;10556;-33.662;151.094;2023-06-22T13:54:47;3.30;;;1.00;;
20792;SDS011;10556;-33.662;151.094;2023-06-22T13:59:48;1.27;;;1.03;;
20792;SDS011;10556;-33.662;151.094;2023-06-22T14:04:51;2.43;;;1.30;;
20792;SDS011;10556;-33.662;151.094;2023-06-22T14:09:52;1.60;;;1.20;;
20792;SDS011;10556;-33.662;151.094;2023-06-22T14:14:54;2.10;;;1.37;;
20792;SDS011;10556;-33.662;151.094;2023-06-22T14:19:57;2.40;;;1.20;;
20792;SDS011;10556;-33.662;151.094;2023-06-22T14:24:58;1.97;;;1.07;;
20792;SDS011;10556;-33.662;151.094;2023-06-22T14:29:59;2.43;;;0.90;;
20792;SDS011;10556;-33.662;151.094;2023-06-22T14:35:03;3.43;;;1.50;;
20792;SDS011;10556;-33.662;151.094;2023-06-22T14:40:04;1.37;;;1.23;;
20792;SDS011;10556;-33.662;151.094;2023-06-22T14:45:06;2.57;;;1.70;;
20792;SDS011;10556;-33.662;151.094;2023-06-22T14:50:09;2.00;;;1.70;;
20792;SDS011;10556;-33.662;151.094;2023-06-22T14:55:11;3.20;;;1.90;;
20792;SDS011;10556;-33.662;151.094;2023-06-22T15:00:12;2.90;;;1.90;;
20792;SDS011;10556;-33.662;151.094;2023-06-22T15:05:15;2.67;;;1.50;;
20792;SDS011;10556;-33.662;151.094;2023-06-22T15:10:16;4.30;;;1.60;;
20792;SDS011;10556;-33.662;151.094;2023-06-22T15:15:18;2.23;;;1.33;;
20792;SDS011;10556;-33.662;151.094;2023-06-22T15:20:21;1.53;;;0.93;;
20792;SDS011;10556;-33.662;151.094;2023-06-22T15:25:22;3.23;;;1.47;;
20792;SDS011;10556;-33.662;151.094;2023-06-22T15:30:23;2.83;;;1.17;;
20792;SDS011;10556;-33.662;151.094;2023-06-22T15:35:26;1.13;;;1.00;;
20792;SDS011;10556;-33.662;151.094;2023-06-22T15:40:28;2.27;;;1.20;;
20792;SDS011;10556;-33.662;151.094;2023-06-22T15:45:29;1.23;;;0.90;;
20792;SDS011;10556;-33.662;151.094;2023-06-22T15:50:32;2.13;;;1.17;;
20792;SDS011;10556;-33.662;151.094;2023-06-22T15:55:33;1.67;;;1.17;;
20792;SDS011;10556;-33.662;151.094;2023-06-22T16:00:34;1.73;;;0.90;;
20792;SDS011;10556;-33.662;151.094;2023-06-22T16:05:37;2.60;;;1.20;;
20792;SDS011;10556;-33.662;151.094;2023-06-22T16:10:39;1.40;;;1.00;;
20792;SDS011;10556;-33.662;151.094;2023-06-22T16:15:40;2.33;;;1.33;;
20792;SDS011;10556;-33.662;151.094;2023-06-22T16:20:43;1.37;;;0.83;;
20792;SDS011;10556;-33.662;151.094;2023-06-22T16:25:44;1.13;;;1.03;;
20792;SDS011;10556;-33.662;151.094;2023-06-22T16:30:46;0.80;;;0.70;;
20792;SDS011;10556;-33.662;151.094;2023-06-22T16:35:49;0.60;;;0.60;;
20792;SDS011;10556;-33.662;151.094;2023-06-22T16:40:50;2.17;;;0.90;;
20792;SDS011;10556;-33.662;151.094;2023-06-22T16:45:51;1.53;;;0.77;;
20792;SDS011;10556;-33.662;151.094;2023-06-22T16:50:54;1.50;;;0.87;;
20792;SDS011;10556;-33.662;151.094;2023-06-22T16:55:56;0.90;;;0.70;;
20792;SDS011;10556;-33.662;151.094;2023-06-22T17:00:57;0.50;;;0.50;;
20792;SDS011;10556;-33.662;151.094;2023-06-22T17:06:00;1.10;;;0.70;;
20792;SDS011;10556;-33.662;151.094;2023-06-22T17:11:02;1.13;;;0.80;;
20792;SDS011;10556;-33.662;151.094;2023-06-22T17:16:03;2.23;;;1.20;;
20792;SDS011;10556;-33.662;151.094;2023-06-22T17:21:08;2.30;;;1.00;;
20792;SDS011;10556;-33.662;151.094;2023-06-22T17:26:11;1.83;;;1.30;;
20792;SDS011;10556;-33.662;151.094;2023-06-22T17:31:13;0.77;;;0.70;;
20792;SDS011;10556;-33.662;151.094;2023-06-22T17:36:16;0.60;;;0.50;;
20792;SDS011;10556;-33.662;151.094;2023-06-22T17:41:17;0.80;;;0.50;;
20792;SDS011;10556;-33.662;151.094;2023-06-22T17:46:18;0.40;;;0.40;;
20792;SDS011;10556;-33.662;151.094;2023-06-22T17:51:27;0.70;;;0.50;;
20792;SDS011;10556;-33.662;151.094;2023-06-22T17:56:32;0.90;;;0.63;;
20792;SDS011;10556;-33.662;151.094;2023-06-22T18:01:35;0.77;;;0.40;;
20792;SDS011;10556;-33.662;151.094;2023-06-22T18:06:38;0.50;;;0.40;;
20792;SDS011;10556;-33.662;151.094;2023-06-22T18:11:42;1.67;;;0.40;;
20792;SDS011;10556;-33.662;151.094;2023-06-22T18:16:44;1.43;;;0.40;;
20792;SDS011;10556;-33.662;151.094;2023-06-22T18:21:47;0.30;;;0.30;;
20792;SDS011;10556;-33.662;151.094;2023-06-22T18:26:49;1.03;;;0.50;;
20792;SDS011;10556;-33.662;151.094;2023-06-22T18:31:50;0.30;;;0.30;;
20792;SDS011;10556;-33.662;151.094;2023-06-22T18:36:53;0.30;;;0.30;;
20792;SDS011;10556;-33.662;151.094;2023-06-22T18:41:58;1.03;;;0.37;;
20792;SDS011;10556;-33.662;151.094;2023-06-22T18:47:00;0.57;;;0.50;;
20792;SDS011;10556;-33.662;151.094;2023-06-22T18:52:11;2.00;;;0.50;;
20792;SDS011;10556;-33.662;151.094;2023-06-22T18:57:15;0.93;;;0.40;;
20792;SDS011;10556;-33.662;151.094;2023-06-22T19:12:50;1.17;;;0.80;;
20792;SDS011;10556;-33.662;151.094;2023-06-22T19:17:51;1.43;;;1.07;;
20792;SDS011;10556;-33.662;151.094;2023-06-22T19:22:56;1.27;;;0.80;;
20792;SDS011;10556;-33.662;151.094;2023-06-22T19:27:59;0.87;;;0.70;;
20792;SDS011;10556;-33.662;151.094;2023-06-22T19:33:00;0.70;;;0.60;;
20792;SDS011;10556;-33.662;151.094;2023-06-22T19:38:02;0.50;;;0.50;;
20792;SDS011;10556;-33.662;151.094;2023-06-22T19:43:05;0.43;;;0.43;;
20792;SDS011;10556;-33.662;151.094;2023-06-22T19:48:07;0.53;;;0.53;;
20792;SDS011;10556;-33.662;151.094;2023-06-22T19:53:09;0.50;;;0.50;;
20792;SDS011;10556;-33.662;151.094;2023-06-22T19:58:13;0.53;;;0.50;;
20792;SDS011;10556;-33.662;151.094;2023-06-22T20:03:15;1.50;;;0.50;;
20792;SDS011;10556;-33.662;151.094;2023-06-22T20:08:17;0.40;;;0.40;;
20792;SDS011;10556;-33.662;151.094;2023-06-22T20:13:20;0.40;;;0.40;;
20792;SDS011;10556;-33.662;151.094;2023-06-22T20:18:21;0.50;;;0.50;;
20792;SDS011;10556;-33.662;151.094;2023-06-22T20:23:23;2.40;;;1.90;;
20792;SDS011;10556;-33.662;151.094;2023-06-22T20:28:26;2.30;;;1.40;;
20792;SDS011;10556;-33.662;151.094;2023-06-22T20:33:27;1.00;;;0.73;;
20792;SDS011;10556;-33.662;151.094;2023-06-22T20:38:28;1.00;;;0.40;;
20792;SDS011;10556;-33.662;151.094;2023-06-22T20:43:31;1.37;;;0.80;;
20792;SDS011;10556;-33.662;151.094;2023-06-22T20:48:33;0.30;;;0.30;;
20792;SDS011;10556;-33.662;151.094;2023-06-22T20:53:34;0.80;;;0.50;;
20792;SDS011;10556;-33.662;151.094;2023-06-22T20:58:37;2.03;;;0.30;;
20792;SDS011;10556;-33.662;151.094;2023-06-22T21:03:38;0.40;;;0.40;;
20792;SDS011;10556;-33.662;151.094;2023-06-22T21:08:40;6.47;;;2.33;;
20792;SDS011;10556;-33.662;151.094;2023-06-22T21:13:43;1.00;;;0.70;;
20792;SDS011;10556;-33.662;151.094;2023-06-22T21:18:44;0.67;;;0.60;;
20792;SDS011;10556;-33.662;151.094;2023-06-22T21:23:45;1.30;;;0.40;;
20792;SDS011;10556;-33.662;151.094;2023-06-22T21:28:48;0.83;;;0.40;;
20792;SDS011;10556;-33.662;151.094;2023-06-22T21:33:49;0.90;;;0.80;;
20792;SDS011;10556;-33.662;151.094;2023-06-22T21:38:51;0.53;;;0.47;;
20792;SDS011;10556;-33.662;151.094;2023-06-22T21:43:54;0.50;;;0.50;;
20792;SDS011;10556;-33.662;151.094;2023-06-22T21:48:55;0.60;;;0.50;;
20792;SDS011;10556;-33.662;151.094;2023-06-22T21:53:56;1.77;;;0.80;;
20792;SDS011;10556;-33.662;151.094;2023-06-22T21:58:59;2.73;;;1.97;;
20792;SDS011;10556;-33.662;151.094;2023-06-22T22:04:00;11.13;;;7.27;;
20792;SDS011;10556;-33.662;151.094;2023-06-22T22:09:02;3.67;;;2.90;;
20792;SDS011;10556;-33.662;151.094;2023-06-22T22:14:05;1.57;;;1.43;;
20792;SDS011;10556;-33.662;151.094;2023-06-22T22:19:06;1.40;;;1.00;;
20792;SDS011;10556;-33.662;151.094;2023-06-22T22:24:07;0.60;;;0.40;;
20792;SDS011;10556;-33.662;151.094;2023-06-22T22:29:10;0.60;;;0.40;;
20792;SDS011;10556;-33.662;151.094;2023-06-22T22:34:11;3.13;;;2.03;;
20792;SDS011;10556;-33.662;151.094;2023-06-22T22:39:13;6.97;;;3.00;;
20792;SDS011;10556;-33.662;151.094;2023-06-22T22:44:31;12.30;;;5.83;;
20792;SDS011;10556;-33.662;151.094;2023-06-22T22:49:32;15.13;;;7.17;;
20792;SDS011;10556;-33.662;151.094;2023-06-22T22:54:33;26.50;;;12.83;;
20792;SDS011;10556;-33.662;151.094;2023-06-22T22:59:36;17.00;;;8.40;;
20792;SDS011;10556;-33.662;151.094;2023-06-22T23:04:38;6.13;;;3.40;;
20792;SDS011;10556;-33.662;151.094;2023-06-22T23:09:39;3.40;;;2.30;;
20792;SDS011;10556;-33.662;151.094;2023-06-22T23:14:42;2.00;;;0.93;;
20792;SDS011;10556;-33.662;151.094;2023-06-22T23:19:43;1.73;;;0.30;;
20792;SDS011;10556;-33.662;151.094;2023-06-22T23:24:45;0.33;;;0.17;;
20792;SDS011;10556;-33.662;151.094;2023-06-22T23:29:48;0.27;;;0.20;;
20792;SDS011;10556;-33.662;151.094;2023-06-22T23:34:49;0.97;;;0.10;;
20792;SDS011;10556;-33.662;151.094;2023-06-22T23:39:50;0.10;;;0.10;;
20792;SDS011;10556;-33.662;151.094;2023-06-22T23:44:53;1.37;;;0.30;;
20792;SDS011;10556;-33.662;151.094;2023-06-22T23:49:55;0.47;;;0.20;;
20792;SDS011;10556;-33.662;151.094;2023-06-22T23:54:56;0.30;;;0.20;;
20792;SDS011;10556;-33.662;151.094;2023-06-22T23:59:59;0.10;;;0.10;;
